Terminal Aerodrome Forecast
Issued by NWS Wilmington, OH

Current Version | Previous Version | Graphics & Text | Print | Product List | Glossary Off
Versions: 1 2 3 4 5 6 7 8 9 10 11 12 13 14 15 16 17 18 19 20 21

718
FTUS41 KILN 230114 AAB
TAFILN
TAF AMD
KILN 230114Z 2301/2324 17014G24KT P6SM VCTS OVC025CB
      TEMPO 2301/2305 4SM -TSRA BR OVC018CB
     FM230500 22012G20KT P6SM SCT150
     FM231000 22012G22KT P6SM VCSH BKN050
     FM231300 23016G28KT P6SM VCSH OVC022
     FM231800 25018G28KT P6SM OVC022=

USA.gov is the U.S. government's official web portal to all federal, state and local government web resources and services.